Bentley, United Kingdom
Current Conditions -  °F | °C
As of 3:50 AM on Saturday 25 Oct 2014 (Local Time) from EGCN Reporting Station
Clear Clear  
Wind Chill: 40°   Ceiling: Unl
Heat Index: 45°   Visibility: 6mi
Dew Point: 43°   Wind: 8mph
Humidity: 93%   Direction: 180°S
Pressure: 29.94"   Gusts: NA
Location:  53.53°N, 1.15°W
Report Text: EGCN 250250Z 18007KT CAVOK 07/06 Q1014
Loading
Personal Weather Stations






























Interactive Weather Map
Tropical Storm Tracking
New forecast layout! Learn more

10-Day Weather Forecast

Advertisements
Track Severe Weather on mobile